Scandia, Washington
Current Conditions -  °F | °C
As of 2:55 AM on Sunday 23 Nov 2014 (Local Time) from KPWT Reporting Station
Broken Clouds Broken Clouds  
Wind Chill: 39°   Ceiling: 2500
Heat Index: 45°   Visibility: 10mi
Dew Point: 45°   Wind: 10mph
Humidity: 100%   Direction: 190°S
Pressure: 30.17"   Gusts: NA
Location:  47.7571°N, 122.623°W
Report Text: KPWT 231055Z AUTO 19009KT 10SM FEW008 SCT017 BKN025 07/07 A3017 RMK AO1 P0016
Loading
Personal Weather Stations






























Interactive Weather Map New forecast layout! Learn more

10-Day Weather Forecast

Advertisements
Track Severe Weather on mobile